TimeEST,TemperatureF,Dew PointF,Humidity,Sea Level PressureIn,VisibilityMPH,Wind Direction,Wind SpeedMPH,Gust SpeedMPH,PrecipitationIn,Events,Conditions,WindDirDegrees,DateUTC
12:53 AM,10.9,5.0,77,30.44,9.0,NW,4.6,-,0.00,Snow,Light Snow,320,2014-02-11 05:53:00
1:53 AM,10.0,5.0,80,30.45,7.0,NNW,4.6,-,0.00,Snow,Light Snow,330,2014-02-11 06:53:00
2:53 AM,10.0,3.9,76,30.46,7.0,NNW,4.6,-,0.00,Snow,Light Snow,340,2014-02-11 07:53:00
3:53 AM,9.0,3.9,80,30.45,6.0,North,3.5,-,0.00,Snow,Light Snow,10,2014-02-11 08:53:00
4:45 AM,9.0,3.0,77,30.39,10.0,NNE,4.6,-,0.00,,Overcast,20,2014-02-11 09:45:00
4:53 AM,9.0,1.9,73,30.45,10.0,North,4.6,-,0.00,,Overcast,10,2014-02-11 09:53:00
5:53 AM,7.0,1.9,80,30.48,10.0,Calm,Calm,-,N/A,,Overcast,0,2014-02-11 10:53:00
6:53 AM,1.9,-0.9,88,30.49,10.0,Calm,Calm,-,N/A,,Mostly Cloudy,0,2014-02-11 11:53:00
7:53 AM,-2.9,-5.1,90,30.52,7.0,South,3.5,-,N/A,Fog,Patches of Fog,180,2014-02-11 12:53:00
8:53 AM,1.9,-0.9,88,30.53,7.0,South,3.5,-,N/A,,Mostly Cloudy,170,2014-02-11 13:53:00
9:53 AM,5.0,1.9,87,30.54,10.0,South,6.9,-,N/A,,Mostly Cloudy,190,2014-02-11 14:53:00
10:08 AM,6.1,1.9,83,30.48,10.0,South,8.1,-,N/A,,Overcast,190,2014-02-11 15:08:00
10:23 AM,7.0,1.9,80,30.48,10.0,South,8.1,-,N/A,,Overcast,190,2014-02-11 15:23:00
10:53 AM,8.1,1.9,76,30.55,10.0,South,8.1,-,N/A,,Overcast,190,2014-02-11 15:53:00
11:53 AM,10.9,1.9,67,30.55,10.0,South,5.8,-,N/A,,Mostly Cloudy,190,2014-02-11 16:53:00
12:53 PM,12.0,1.9,64,30.53,10.0,SSW,3.5,-,N/A,,Mostly Cloudy,200,2014-02-11 17:53:00
1:53 PM,14.0,1.9,59,30.51,10.0,Calm,Calm,-,N/A,,Mostly Cloudy,0,2014-02-11 18:53:00
2:53 PM,14.0,1.0,56,30.50,10.0,Calm,Calm,-,N/A,,Scattered Clouds,0,2014-02-11 19:53:00
3:53 PM,15.1,1.9,56,30.49,10.0,South,4.6,-,N/A,,Clear,180,2014-02-11 20:53:00
4:53 PM,15.1,1.9,56,30.49,10.0,SSE,4.6,-,N/A,,Clear,150,2014-02-11 21:53:00
5:53 PM,10.9,-0.0,61,30.49,10.0,South,4.6,-,N/A,,Clear,170,2014-02-11 22:53:00
6:53 PM,9.0,-0.9,64,30.50,10.0,South,4.6,-,N/A,,Clear,170,2014-02-11 23:53:00
7:53 PM,8.1,-0.9,67,30.50,10.0,South,4.6,-,N/A,,Clear,180,2014-02-12 00:53:00
8:53 PM,6.1,-0.9,73,30.48,10.0,South,4.6,-,N/A,,Clear,170,2014-02-12 01:53:00
9:53 PM,3.9,-0.9,80,30.48,10.0,SSE,4.6,-,N/A,,Clear,160,2014-02-12 02:53:00
10:53 PM,-2.0,-6.0,83,30.48,10.0,South,3.5,-,N/A,,Clear,170,2014-02-12 03:53:00
11:53 PM,1.0,-4.0,79,30.47,10.0,SSE,5.8,-,N/A,,Clear,160,2014-02-12 04:53:00